Time;durP1;ratioP1;P1;durP2;ratioP2;P2;SDS_P1;SDS_P2;PMS_P1;PMS_P2;Temp;Humidity;BMP_temperature;BMP_pressure;BME280_temperature;BME280_humidity;BME280_pressure;Samples;Min_cycle;Max_cycle;Signal;HPM_P1;HPM_P2
2022/10/18 00:00:48;;;;;;;;;;;22.20;99.90;;;;;;5047789;28;20326;-76
2022/10/18 00:03:15;;;;;;;;;;;22.20;99.90;;;;;;5048446;28;20275;-75
2022/10/18 00:05:41;;;;;;;;;;;22.10;99.90;;;;;;5048970;28;19917;-76
2022/10/18 00:08:08;;;;;;;;;;;21.80;99.90;;;;;;5048299;28;19920;-77
2022/10/18 00:10:35;;;;;;;;;;;21.60;99.90;;;;;;5045401;28;19919;-75
2022/10/18 00:13:01;;;;;;;;;;;21.30;99.90;;;;;;5048689;28;19928;-78
2022/10/18 00:15:28;;;;;;;;;;;21.10;99.90;;;;;;5047885;28;20367;-77
2022/10/18 00:17:55;;;;;;;;;;;21.00;99.90;;;;;;5040549;28;20011;-77
2022/10/18 00:20:21;;;;;;;;;;;21.20;99.90;;;;;;5051808;28;19979;-77
2022/10/18 00:22:48;;;;;;;;;;;22.10;99.90;;;;;;5050041;28;19916;-75
2022/10/18 00:25:15;;;;;;;;;;;22.60;99.90;;;;;;5048961;28;19968;-78
2022/10/18 00:27:42;;;;;;;;;;;22.60;99.80;;;;;;5047838;28;19962;-75
2022/10/18 00:30:09;;;;;;;;;;;22.30;99.60;;;;;;5044832;28;20008;-80
2022/10/18 00:32:37;;;;;;;;;;;22.00;99.90;;;;;;5048795;28;19928;-77
2022/10/18 00:35:04;;;;;;;;;;;21.90;99.90;;;;;;5049274;28;19913;-80
2022/10/18 00:37:31;;;;;;;;;;;21.80;99.90;;;;;;5049818;28;20079;-80
2022/10/18 00:39:58;;;;;;;;;;;21.70;99.90;;;;;;5031267;28;19956;-80
2022/10/18 00:42:26;;;;;;;;;;;21.70;99.90;;;;;;5047018;28;19917;-82
2022/10/18 00:45:16;;;;;;;;;;;21.60;99.90;;;;;;5048766;28;20337;-82
2022/10/18 00:47:44;;;;;;;;;;;21.30;99.90;;;;;;5042813;28;20309;-81
2022/10/18 00:50:11;;;;;;;;;;;21.10;99.90;;;;;;5050068;28;19923;-80
2022/10/18 00:52:40;;;;;;;;;;;21.10;99.90;;;;;;5052943;28;20396;-81
2022/10/18 00:55:08;;;;;;;;;;;21.10;99.90;;;;;;5054492;28;20310;-81
2022/10/18 00:57:35;;;;;;;;;;;21.10;99.90;;;;;;5052805;28;19959;-82
2022/10/18 01:00:06;;;;;;;;;;;21.00;99.90;;;;;;5048668;28;19982;-80
2022/10/18 01:02:33;;;;;;;;;;;20.90;99.90;;;;;;5051613;28;19920;-77
2022/10/18 01:04:59;;;;;;;;;;;20.70;99.90;;;;;;5048877;28;19916;-81
2022/10/18 01:07:26;;;;;;;;;;;20.60;99.90;;;;;;5048980;28;19946;-80
2022/10/18 01:09:59;;;;;;;;;;;20.50;99.90;;;;;;5053972;28;20425;-83
2022/10/18 01:12:25;;;;;;;;;;;20.50;99.90;;;;;;5051145;28;19928;-80
2022/10/18 01:14:58;;;;;;;;;;;20.40;99.90;;;;;;5054286;28;19913;-79
2022/10/18 01:17:43;;;;;;;;;;;20.40;99.90;;;;;;5051840;28;19917;-82
2022/10/18 01:20:13;;;;;;;;;;;20.40;99.90;;;;;;5047818;28;19951;-80
2022/10/18 01:22:49;;;;;;;;;;;20.50;99.90;;;;;;5050805;28;19963;-81
2022/10/18 01:25:36;;;;;;;;;;;20.80;99.90;;;;;;5027254;28;19931;-80
2022/10/18 01:28:02;;;;;;;;;;;21.10;99.90;;;;;;5052410;28;19912;-79
2022/10/18 01:30:32;;;;;;;;;;;21.40;99.90;;;;;;5055648;28;20318;-79
2022/10/18 01:33:10;;;;;;;;;;;21.50;99.90;;;;;;5052409;28;19913;-80
2022/10/18 01:35:40;;;;;;;;;;;21.70;99.90;;;;;;5052365;28;19939;-81
2022/10/18 01:38:10;;;;;;;;;;;21.70;99.90;;;;;;5051646;28;19966;-81
2022/10/18 01:40:37;;;;;;;;;;;21.70;99.90;;;;;;5051059;28;19935;-79
2022/10/18 01:43:05;;;;;;;;;;;21.70;99.90;;;;;;5053034;28;19939;-80
2022/10/18 01:45:32;;;;;;;;;;;21.50;99.90;;;;;;5048790;28;19917;-81
2022/10/18 01:48:00;;;;;;;;;;;21.30;99.90;;;;;;5051296;28;19913;-79
2022/10/18 01:50:30;;;;;;;;;;;21.10;99.90;;;;;;5051615;28;20325;-80
2022/10/18 01:52:57;;;;;;;;;;;20.80;99.90;;;;;;5049437;28;19917;-78
2022/10/18 01:55:32;;;;;;;;;;;20.40;99.90;;;;;;5053843;28;20299;-78
2022/10/18 01:58:17;;;;;;;;;;;20.20;99.90;;;;;;5047876;28;19913;-81
2022/10/18 02:00:44;;;;;;;;;;;20.10;99.90;;;;;;5033975;28;19982;-80
2022/10/18 02:03:36;;;;;;;;;;;20.00;99.90;;;;;;5033939;28;19913;-81
2022/10/18 02:06:06;;;;;;;;;;;19.90;99.90;;;;;;5047615;28;19913;-83
2022/10/18 02:08:33;;;;;;;;;;;19.80;99.90;;;;;;5051555;28;19917;-78
2022/10/18 02:11:04;;;;;;;;;;;19.80;99.90;;;;;;5041650;28;19924;-81
2022/10/18 02:13:51;;;;;;;;;;;19.60;99.90;;;;;;5044974;28;20299;-79
2022/10/18 02:16:36;;;;;;;;;;;19.50;99.90;;;;;;5052952;28;19971;-79
2022/10/18 02:19:22;;;;;;;;;;;19.30;99.90;;;;;;5044851;28;19948;-81
2022/10/18 02:21:50;;;;;;;;;;;19.20;99.90;;;;;;5028394;28;19943;-80
2022/10/18 02:24:18;;;;;;;;;;;19.10;99.90;;;;;;5051319;28;19974;-80
2022/10/18 02:26:44;;;;;;;;;;;19.10;99.90;;;;;;5051890;28;19928;-81
2022/10/18 02:29:11;;;;;;;;;;;19.00;99.90;;;;;;5052184;28;19923;-79
2022/10/18 02:31:46;;;;;;;;;;;18.90;99.90;;;;;;5051340;28;19912;-79
2022/10/18 02:34:33;;;;;;;;;;;18.80;99.90;;;;;;5047343;28;19913;-82
2022/10/18 02:37:00;;;;;;;;;;;18.70;99.90;;;;;;5044454;28;19923;-81
2022/10/18 02:39:32;;;;;;;;;;;18.60;99.90;;;;;;5046176;28;19920;-81
2022/10/18 02:41:59;;;;;;;;;;;18.50;99.90;;;;;;5050851;28;19927;-80
2022/10/18 02:44:26;;;;;;;;;;;18.50;99.90;;;;;;5049805;28;19923;-78
2022/10/18 02:46:53;;;;;;;;;;;18.40;99.90;;;;;;5049069;28;20317;-79
2022/10/18 02:49:19;;;;;;;;;;;18.40;99.90;;;;;;5033212;28;19990;-80
2022/10/18 02:51:46;;;;;;;;;;;18.40;99.90;;;;;;5045524;28;19931;-79
2022/10/18 02:54:13;;;;;;;;;;;18.40;99.90;;;;;;5050558;28;20285;-80
2022/10/18 02:56:39;;;;;;;;;;;18.40;99.90;;;;;;5052754;28;20359;-80
2022/10/18 02:59:07;;;;;;;;;;;18.50;99.90;;;;;;5051803;28;19992;-79
2022/10/18 03:01:34;;;;;;;;;;;18.50;99.90;;;;;;5052663;28;19924;-78
2022/10/18 03:04:01;;;;;;;;;;;18.60;99.90;;;;;;5039440;28;20432;-80
2022/10/18 03:06:28;;;;;;;;;;;18.70;99.90;;;;;;5050885;28;20280;-79
2022/10/18 03:08:55;;;;;;;;;;;18.80;99.90;;;;;;5051893;28;20032;-79
2022/10/18 03:11:21;;;;;;;;;;;18.90;99.90;;;;;;5052541;28;19916;-80
2022/10/18 03:13:49;;;;;;;;;;;19.00;99.90;;;;;;5039162;28;19913;-79
2022/10/18 03:16:17;;;;;;;;;;;19.10;99.90;;;;;;5043364;28;19951;-80
2022/10/18 03:18:43;;;;;;;;;;;19.30;99.90;;;;;;5040946;28;19913;-79
2022/10/18 03:21:10;;;;;;;;;;;19.40;99.90;;;;;;5052671;28;19956;-80
2022/10/18 03:23:37;;;;;;;;;;;19.50;99.90;;;;;;5051718;28;19916;-79
2022/10/18 03:26:03;;;;;;;;;;;19.70;99.90;;;;;;5048304;28;19924;-80
2022/10/18 03:28:30;;;;;;;;;;;19.80;99.90;;;;;;5048279;28;20004;-81
2022/10/18 03:31:01;;;;;;;;;;;20.00;99.90;;;;;;5051051;28;19917;-78
2022/10/18 03:33:28;;;;;;;;;;;20.10;99.90;;;;;;5047907;28;19967;-81
2022/10/18 03:35:55;;;;;;;;;;;20.30;99.90;;;;;;5051905;28;19952;-81
2022/10/18 03:38:21;;;;;;;;;;;20.50;99.90;;;;;;5051378;28;19916;-79
2022/10/18 03:40:48;;;;;;;;;;;20.70;99.90;;;;;;5051331;28;19931;-80
2022/10/18 03:43:15;;;;;;;;;;;20.80;99.90;;;;;;5032083;28;19913;-82
2022/10/18 03:45:41;;;;;;;;;;;21.00;99.90;;;;;;5051885;28;19921;-80
2022/10/18 03:48:08;;;;;;;;;;;21.10;99.90;;;;;;5051452;28;19975;-80
2022/10/18 03:50:35;;;;;;;;;;;21.10;99.90;;;;;;5047994;28;19917;-78
2022/10/18 03:53:01;;;;;;;;;;;21.20;99.90;;;;;;5043577;28;20442;-80
2022/10/18 03:55:28;;;;;;;;;;;21.20;99.90;;;;;;5038773;28;19913;-79
2022/10/18 03:57:55;;;;;;;;;;;21.30;99.90;;;;;;5045959;28;19913;-80
2022/10/18 04:00:21;;;;;;;;;;;21.40;99.90;;;;;;5051294;28;19927;-80
2022/10/18 04:02:48;;;;;;;;;;;21.40;99.90;;;;;;5050922;28;20235;-80
2022/10/18 04:05:15;;;;;;;;;;;21.40;99.90;;;;;;5049474;28;19912;-79
2022/10/18 04:07:41;;;;;;;;;;;21.50;99.90;;;;;;5050346;28;19956;-80
2022/10/18 04:10:08;;;;;;;;;;;21.60;99.90;;;;;;5035246;28;19910;-80
2022/10/18 04:12:35;;;;;;;;;;;21.70;99.90;;;;;;5035929;28;19961;-79
2022/10/18 04:15:01;;;;;;;;;;;21.70;99.90;;;;;;5043095;28;19939;-79
2022/10/18 04:17:28;;;;;;;;;;;21.70;99.90;;;;;;5050531;28;20401;-79
2022/10/18 04:19:55;;;;;;;;;;;21.80;99.90;;;;;;5050495;28;20294;-77
2022/10/18 04:22:21;;;;;;;;;;;21.80;99.90;;;;;;5048700;28;20403;-76
2022/10/18 04:24:48;;;;;;;;;;;21.80;99.90;;;;;;5038090;28;19919;-78
2022/10/18 04:27:15;;;;;;;;;;;21.90;99.90;;;;;;5051994;28;19929;-80
2022/10/18 04:29:41;;;;;;;;;;;21.90;99.90;;;;;;5054518;28;20381;-77
2022/10/18 04:32:08;;;;;;;;;;;21.80;99.90;;;;;;5054902;28;19916;-79
2022/10/18 04:34:35;;;;;;;;;;;21.70;99.90;;;;;;5053867;28;20003;-82
2022/10/18 04:37:02;;;;;;;;;;;21.60;99.90;;;;;;5054708;28;19916;-79
2022/10/18 04:39:28;;;;;;;;;;;21.50;99.90;;;;;;5051383;28;19939;-77
2022/10/18 04:41:55;;;;;;;;;;;21.40;99.90;;;;;;5046239;28;19939;-76
2022/10/18 04:44:22;;;;;;;;;;;21.40;99.90;;;;;;5051052;28;20380;-78
2022/10/18 04:46:48;;;;;;;;;;;21.20;99.90;;;;;;5053834;28;19913;-75
2022/10/18 04:49:15;;;;;;;;;;;21.10;99.90;;;;;;5053010;28;20410;-76
2022/10/18 04:51:41;;;;;;;;;;;21.00;99.90;;;;;;5052889;28;20015;-75
2022/10/18 04:54:08;;;;;;;;;;;20.90;99.90;;;;;;5049432;28;19935;-78
2022/10/18 04:56:35;;;;;;;;;;;20.90;99.90;;;;;;5053816;28;19924;-77
2022/10/18 04:59:01;;;;;;;;;;;20.80;99.90;;;;;;5045013;28;19913;-77
2022/10/18 05:01:28;;;;;;;;;;;20.80;99.90;;;;;;5041672;28;19944;-78
2022/10/18 05:03:55;;;;;;;;;;;20.70;99.90;;;;;;5047398;28;19954;-78
2022/10/18 05:06:22;;;;;;;;;;;20.70;99.90;;;;;;5050565;28;19927;-77
2022/10/18 05:08:48;;;;;;;;;;;20.80;99.90;;;;;;5048076;28;19912;-74
2022/10/18 05:11:15;;;;;;;;;;;20.80;99.90;;;;;;5053391;28;19916;-74
2022/10/18 05:13:42;;;;;;;;;;;20.80;99.90;;;;;;5041210;28;19909;-78
2022/10/18 05:16:09;;;;;;;;;;;20.80;99.90;;;;;;5042364;28;19928;-77
2022/10/18 05:18:36;;;;;;;;;;;20.70;99.90;;;;;;5052282;28;19920;-77
2022/10/18 05:21:03;;;;;;;;;;;20.80;99.90;;;;;;5050585;28;19921;-77
2022/10/18 05:23:30;;;;;;;;;;;20.80;99.90;;;;;;5057345;28;20351;-80
2022/10/18 05:26:00;;;;;;;;;;;20.80;99.90;;;;;;5053027;28;20334;-78
2022/10/18 05:28:27;;;;;;;;;;;20.80;99.90;;;;;;5051597;28;19912;-79
2022/10/18 05:30:53;;;;;;;;;;;20.80;99.90;;;;;;5046493;28;20023;-77
2022/10/18 05:33:20;;;;;;;;;;;20.80;99.90;;;;;;5050574;28;19913;-78
2022/10/18 05:35:47;;;;;;;;;;;20.80;99.90;;;;;;5053215;28;19912;-78
2022/10/18 05:38:13;;;;;;;;;;;20.80;99.90;;;;;;5042919;28;19953;-79
2022/10/18 05:40:40;;;;;;;;;;;20.80;99.90;;;;;;5040775;28;19921;-78
2022/10/18 05:43:07;;;;;;;;;;;20.80;99.90;;;;;;5043058;28;19974;-75
2022/10/18 05:45:33;;;;;;;;;;;20.80;99.90;;;;;;5051873;28;19913;-78
2022/10/18 05:48:00;;;;;;;;;;;20.80;99.90;;;;;;5051183;28;19917;-77
2022/10/18 05:50:27;;;;;;;;;;;20.80;99.90;;;;;;5050953;28;20460;-80
2022/10/18 05:52:57;;;;;;;;;;;20.80;99.90;;;;;;5052249;28;20007;-77
2022/10/18 05:55:24;;;;;;;;;;;20.80;99.90;;;;;;5050680;28;19924;-78
2022/10/18 05:57:51;;;;;;;;;;;20.80;99.90;;;;;;5040515;28;19924;-78
2022/10/18 06:00:18;;;;;;;;;;;20.80;99.90;;;;;;5034565;28;19927;-78
2022/10/18 06:02:44;;;;;;;;;;;20.80;99.90;;;;;;5031049;28;20005;-77
2022/10/18 06:05:11;;;;;;;;;;;20.70;99.90;;;;;;5050692;28;19917;-78
2022/10/18 06:07:37;;;;;;;;;;;20.70;99.90;;;;;;5048508;28;19967;-79
2022/10/18 06:10:04;;;;;;;;;;;20.70;99.90;;;;;;5051854;28;19912;-77
2022/10/18 06:12:31;;;;;;;;;;;20.60;99.90;;;;;;5049999;28;19921;-76
2022/10/18 06:14:58;;;;;;;;;;;20.60;99.90;;;;;;5051654;28;19916;-77
2022/10/18 06:17:24;;;;;;;;;;;20.60;99.90;;;;;;5048201;28;19948;-78
2022/10/18 06:19:51;;;;;;;;;;;20.50;99.90;;;;;;5036467;28;19925;-79
2022/10/18 06:22:18;;;;;;;;;;;20.50;99.90;;;;;;5046934;28;21429;-77
2022/10/18 06:24:44;;;;;;;;;;;20.40;99.90;;;;;;5051177;28;19920;-77
2022/10/18 06:27:11;;;;;;;;;;;20.40;99.90;;;;;;5046248;28;19924;-77
2022/10/18 06:29:38;;;;;;;;;;;20.40;99.90;;;;;;5047650;28;20014;-75
2022/10/18 06:32:06;;;;;;;;;;;20.40;99.90;;;;;;5047766;28;19963;-74
2022/10/18 06:34:33;;;;;;;;;;;20.30;99.90;;;;;;5053163;28;19940;-79
2022/10/18 06:36:59;;;;;;;;;;;20.30;99.90;;;;;;5051254;28;19913;-78
2022/10/18 06:39:26;;;;;;;;;;;20.20;99.90;;;;;;5050050;28;19913;-75
2022/10/18 06:41:53;;;;;;;;;;;20.20;99.90;;;;;;5049062;28;20015;-77
2022/10/18 06:44:20;;;;;;;;;;;20.20;99.90;;;;;;5049942;28;19917;-78
2022/10/18 06:46:47;;;;;;;;;;;20.10;99.90;;;;;;5033227;28;20275;-75
2022/10/18 06:49:15;;;;;;;;;;;20.10;99.90;;;;;;5049906;28;20350;-77
2022/10/18 06:51:42;;;;;;;;;;;20.00;99.90;;;;;;5051023;28;19917;-79
2022/10/18 06:54:08;;;;;;;;;;;20.00;99.90;;;;;;5037305;28;20773;-78
2022/10/18 06:56:35;;;;;;;;;;;20.00;99.90;;;;;;5052701;28;19916;-77
2022/10/18 06:59:02;;;;;;;;;;;19.90;99.90;;;;;;5047538;28;19913;-75
2022/10/18 07:01:29;;;;;;;;;;;19.90;99.90;;;;;;5051560;28;19998;-79
2022/10/18 07:03:56;;;;;;;;;;;19.80;99.90;;;;;;5030575;28;19919;-79
2022/10/18 07:06:23;;;;;;;;;;;19.80;99.90;;;;;;5051711;28;19913;-78
2022/10/18 07:08:51;;;;;;;;;;;19.80;99.90;;;;;;5043634;28;19916;-76
2022/10/18 07:11:19;;;;;;;;;;;19.80;99.90;;;;;;5046513;28;19912;-78
2022/10/18 07:13:46;;;;;;;;;;;19.80;99.90;;;;;;5048861;28;19913;-77
2022/10/18 07:16:13;;;;;;;;;;;19.70;99.90;;;;;;5050616;28;19967;-76
2022/10/18 07:18:44;;;;;;;;;;;19.70;99.90;;;;;;5050921;28;19958;-76
2022/10/18 07:21:12;;;;;;;;;;;19.70;99.90;;;;;;5047955;28;19987;-79
2022/10/18 07:23:40;;;;;;;;;;;19.70;99.90;;;;;;5051335;28;20278;-76
2022/10/18 07:26:13;;;;;;;;;;;19.60;99.90;;;;;;5049514;28;19974;-77
2022/10/18 07:28:39;;;;;;;;;;;19.70;99.90;;;;;;5049226;28;19919;-77
2022/10/18 07:31:07;;;;;;;;;;;19.60;99.90;;;;;;5050878;28;20008;-77
2022/10/18 07:33:34;;;;;;;;;;;19.60;99.90;;;;;;5048815;28;19913;-78
2022/10/18 07:36:02;;;;;;;;;;;19.50;99.90;;;;;;5052237;28;20442;-78
2022/10/18 07:38:29;;;;;;;;;;;19.50;99.90;;;;;;5046208;28;19999;-75
2022/10/18 07:40:57;;;;;;;;;;;19.50;99.90;;;;;;5049826;28;19924;-77
2022/10/18 07:43:24;;;;;;;;;;;19.40;99.90;;;;;;5046389;28;19920;-78
2022/10/18 07:46:08;;;;;;;;;;;19.40;99.90;;;;;;5049881;28;19919;-77
2022/10/18 07:48:35;;;;;;;;;;;19.40;99.90;;;;;;5049130;28;19967;-77
2022/10/18 07:51:01;;;;;;;;;;;19.40;99.90;;;;;;5045872;28;20286;-77
2022/10/18 07:53:28;;;;;;;;;;;19.40;99.90;;;;;;5047529;28;20321;-77
2022/10/18 07:55:59;;;;;;;;;;;19.30;99.90;;;;;;5053154;28;19921;-78
2022/10/18 07:58:25;;;;;;;;;;;19.30;99.90;;;;;;5042635;28;19917;-78
2022/10/18 08:00:52;;;;;;;;;;;19.20;99.90;;;;;;5048659;28;19920;-77
2022/10/18 08:03:19;;;;;;;;;;;19.20;99.90;;;;;;5046248;28;19919;-73
2022/10/18 08:05:53;;;;;;;;;;;19.10;99.90;;;;;;5044080;28;19920;-77
2022/10/18 08:08:23;;;;;;;;;;;19.10;99.90;;;;;;5045959;28;19935;-79
2022/10/18 08:10:50;;;;;;;;;;;19.00;99.90;;;;;;5048658;28;19912;-77
2022/10/18 08:13:16;;;;;;;;;;;19.00;99.90;;;;;;5044818;28;19913;-75
2022/10/18 08:15:43;;;;;;;;;;;18.90;99.90;;;;;;5051126;28;19916;-77
2022/10/18 08:18:10;;;;;;;;;;;18.90;99.90;;;;;;5046602;28;19947;-78
2022/10/18 08:20:37;;;;;;;;;;;18.80;99.90;;;;;;5048963;28;20423;-77
2022/10/18 08:23:04;;;;;;;;;;;18.70;99.90;;;;;;5048786;28;19920;-78
2022/10/18 08:25:31;;;;;;;;;;;18.70;99.90;;;;;;5046437;28;19992;-76
2022/10/18 08:28:00;;;;;;;;;;;18.60;99.90;;;;;;5047617;28;20351;-76
2022/10/18 08:30:26;;;;;;;;;;;18.50;99.90;;;;;;5043658;28;19995;-76
2022/10/18 08:32:53;;;;;;;;;;;18.50;99.90;;;;;;5044321;28;19912;-75
2022/10/18 08:35:20;;;;;;;;;;;18.50;99.90;;;;;;5048135;28;20000;-76
2022/10/18 08:37:47;;;;;;;;;;;18.50;99.90;;;;;;5050048;28;20347;-77
2022/10/18 08:40:14;;;;;;;;;;;18.40;99.90;;;;;;5050104;28;19921;-76
2022/10/18 08:43:00;;;;;;;;;;;18.40;99.90;;;;;;5048330;28;19913;-76
2022/10/18 08:45:27;;;;;;;;;;;18.40;99.90;;;;;;5046249;28;19913;-76
2022/10/18 08:47:56;;;;;;;;;;;18.40;99.90;;;;;;5045682;28;19924;-78
2022/10/18 08:50:34;;;;;;;;;;;18.40;99.90;;;;;;5048650;28;19920;-78
2022/10/18 08:53:06;;;;;;;;;;;18.40;99.90;;;;;;5046862;28;19916;-78
2022/10/18 08:55:41;;;;;;;;;;;18.30;99.90;;;;;;5049238;28;19913;-75
2022/10/18 08:58:25;;;;;;;;;;;18.30;99.90;;;;;;5043677;28;20553;-78
2022/10/18 09:01:10;;;;;;;;;;;18.30;99.90;;;;;;5046597;28;20294;-78
2022/10/18 09:03:55;;;;;;;;;;;18.20;99.90;;;;;;5047302;28;20011;-76
2022/10/18 09:06:24;;;;;;;;;;;18.20;99.90;;;;;;5046903;28;20306;-77
2022/10/18 09:09:09;;;;;;;;;;;18.20;99.90;;;;;;5044945;28;19955;-77
2022/10/18 09:11:51;;;;;;;;;;;18.10;99.90;;;;;;5048143;28;19913;-75
2022/10/18 09:14:26;;;;;;;;;;;18.10;99.90;;;;;;5049645;28;19921;-76
2022/10/18 09:17:15;;;;;;;;;;;18.10;99.90;;;;;;5052905;28;19913;-74
2022/10/18 09:19:54;;;;;;;;;;;18.10;99.90;;;;;;5022065;28;20306;-76
2022/10/18 09:22:38;;;;;;;;;;;18.00;99.90;;;;;;5051879;28;19913;-75
2022/10/18 09:25:17;;;;;;;;;;;18.00;99.90;;;;;;5049966;28;19925;-74
2022/10/18 09:27:50;;;;;;;;;;;18.00;99.90;;;;;;5043045;28;20270;-77
2022/10/18 09:30:19;;;;;;;;;;;18.00;99.90;;;;;;5053669;28;19913;-76
2022/10/18 09:33:04;;;;;;;;;;;17.90;99.90;;;;;;5046266;28;19917;-76
2022/10/18 09:35:38;;;;;;;;;;;17.90;99.90;;;;;;5051981;28;19971;-77
2022/10/18 09:38:08;;;;;;;;;;;17.90;99.90;;;;;;5051114;28;19912;-77
2022/10/18 09:40:37;;;;;;;;;;;17.80;99.90;;;;;;5053605;28;19928;-76
2022/10/18 09:43:11;;;;;;;;;;;17.80;99.90;;;;;;5051993;28;19913;-76
2022/10/18 09:45:42;;;;;;;;;;;17.80;99.90;;;;;;5051770;28;20026;-76
2022/10/18 09:48:19;;;;;;;;;;;17.80;99.90;;;;;;5047520;28;19923;-78
2022/10/18 09:51:02;;;;;;;;;;;17.80;99.90;;;;;;5045630;28;20738;-81
2022/10/18 09:53:39;;;;;;;;;;;17.80;99.90;;;;;;5044093;28;20534;-78
2022/10/18 09:56:10;;;;;;;;;;;17.80;99.90;;;;;;5034184;28;20423;-75
2022/10/18 09:58:45;;;;;;;;;;;17.70;99.90;;;;;;5045913;28;19913;-75
2022/10/18 10:01:16;;;;;;;;;;;17.70;99.90;;;;;;5051778;28;20027;-78
2022/10/18 10:03:42;;;;;;;;;;;17.80;99.90;;;;;;5044236;28;19919;-79
2022/10/18 10:06:13;;;;;;;;;;;17.80;99.90;;;;;;5050455;28;20442;-79
2022/10/18 10:08:44;;;;;;;;;;;17.70;99.90;;;;;;5050192;28;20007;-81
2022/10/18 10:11:29;;;;;;;;;;;17.80;99.90;;;;;;5053275;28;20003;-80
2022/10/18 10:14:07;;;;;;;;;;;17.70;99.90;;;;;;5042307;28;19924;-80
2022/10/18 10:16:42;;;;;;;;;;;17.80;99.90;;;;;;5043595;28;20397;-80
2022/10/18 10:19:16;;;;;;;;;;;17.70;99.90;;;;;;5048322;28;19927;-81
2022/10/18 10:21:42;;;;;;;;;;;17.70;99.90;;;;;;5045949;28;19927;-79
2022/10/18 10:24:25;;;;;;;;;;;17.70;99.90;;;;;;5038078;28;19959;-81
2022/10/18 10:26:58;;;;;;;;;;;17.70;99.90;;;;;;5047715;28;19929;-80
2022/10/18 10:29:44;;;;;;;;;;;17.70;99.90;;;;;;5047377;28;19917;-78
2022/10/18 10:32:12;;;;;;;;;;;17.70;99.90;;;;;;5045285;28;19912;-79
2022/10/18 10:34:39;;;;;;;;;;;17.60;99.90;;;;;;5029248;28;19919;-80
2022/10/18 10:37:21;;;;;;;;;;;17.60;99.90;;;;;;5045034;28;20645;-76
2022/10/18 10:40:07;;;;;;;;;;;17.60;99.90;;;;;;5044375;28;20021;-79
2022/10/18 10:42:36;;;;;;;;;;;17.60;99.90;;;;;;5046069;28;20382;-79
2022/10/18 10:45:03;;;;;;;;;;;17.60;99.90;;;;;;5051741;28;20473;-76
2022/10/18 10:47:32;;;;;;;;;;;17.60;99.90;;;;;;5049681;28;19921;-78
2022/10/18 10:50:08;;;;;;;;;;;17.60;99.90;;;;;;5048268;28;19927;-78
2022/10/18 10:52:36;;;;;;;;;;;17.60;99.90;;;;;;5051469;28;20359;-75
2022/10/18 10:55:04;;;;;;;;;;;17.60;99.90;;;;;;5042805;28;19919;-78
2022/10/18 10:57:30;;;;;;;;;;;17.60;99.90;;;;;;5047993;28;19917;-80
2022/10/18 10:59:58;;;;;;;;;;;17.60;99.90;;;;;;5048684;28;19924;-81
2022/10/18 11:02:32;;;;;;;;;;;17.60;99.90;;;;;;5050190;28;19920;-83
2022/10/18 11:05:18;;;;;;;;;;;17.50;99.90;;;;;;5037201;28;19916;-82
2022/10/18 11:07:46;;;;;;;;;;;17.50;99.90;;;;;;5036806;28;20008;-78
2022/10/18 11:10:20;;;;;;;;;;;17.50;99.90;;;;;;5048642;28;19920;-79
2022/10/18 11:12:51;;;;;;;;;;;17.50;99.90;;;;;;5039509;28;19923;-82
2022/10/18 11:15:31;;;;;;;;;;;17.50;99.90;;;;;;5047817;28;19923;-84
2022/10/18 11:17:58;;;;;;;;;;;17.40;99.90;;;;;;5045188;28;19947;-83
2022/10/18 11:20:31;;;;;;;;;;;17.40;99.90;;;;;;5050623;28;19920;-82
2022/10/18 11:23:09;;;;;;;;;;;17.40;99.90;;;;;;5031091;28;20336;-73
2022/10/18 11:25:54;;;;;;;;;;;17.40;99.90;;;;;;5048666;28;19921;-79
2022/10/18 11:28:24;;;;;;;;;;;17.30;99.90;;;;;;5040954;28;19920;-74
2022/10/18 11:30:54;;;;;;;;;;;17.30;99.90;;;;;;5048350;28;19921;-80
2022/10/18 11:33:23;;;;;;;;;;;17.30;99.90;;;;;;5038260;28;22399;-79
2022/10/18 11:36:04;;;;;;;;;;;17.20;99.90;;;;;;5046423;28;19920;-78
2022/10/18 11:38:42;;;;;;;;;;;17.20;99.90;;;;;;5044745;28;19913;-77
2022/10/18 11:41:09;;;;;;;;;;;17.20;99.90;;;;;;5049561;28;19990;-72
2022/10/18 11:44:02;;;;;;;;;;;17.20;99.90;;;;;;5047795;28;19913;-80
2022/10/18 11:46:41;;;;;;;;;;;17.20;99.90;;;;;;5048464;28;19952;-76
2022/10/18 11:49:16;;;;;;;;;;;17.20;99.90;;;;;;5048950;28;19936;-82
2022/10/18 11:51:46;;;;;;;;;;;17.30;99.90;;;;;;5040494;28;19971;-81
2022/10/18 11:54:31;;;;;;;;;;;17.30;99.90;;;;;;5048049;28;19939;-76
2022/10/18 11:57:20;;;;;;;;;;;17.40;99.90;;;;;;5047159;28;19924;-74
2022/10/18 11:59:56;;;;;;;;;;;17.40;99.90;;;;;;5031011;28;19913;-72
2022/10/18 12:02:29;;;;;;;;;;;17.50;99.90;;;;;;5046101;28;20402;-78
2022/10/18 12:05:01;;;;;;;;;;;17.50;99.90;;;;;;5048194;28;20290;-73
2022/10/18 12:07:33;;;;;;;;;;;17.60;99.90;;;;;;5044239;28;19917;-82
2022/10/18 12:10:00;;;;;;;;;;;17.60;99.90;;;;;;5044411;28;19915;-79
2022/10/18 12:12:38;;;;;;;;;;;17.60;99.90;;;;;;5049132;28;20378;-78
2022/10/18 12:15:11;;;;;;;;;;;17.60;99.90;;;;;;5050294;28;19916;-83
2022/10/18 12:17:46;;;;;;;;;;;17.70;99.90;;;;;;5047993;28;19913;-78
2022/10/18 12:20:33;;;;;;;;;;;17.70;99.90;;;;;;5043471;28;20869;-79
2022/10/18 12:23:01;;;;;;;;;;;17.70;99.90;;;;;;5043635;28;19920;-81
2022/10/18 12:25:29;;;;;;;;;;;17.70;99.90;;;;;;5049528;28;19927;-76
2022/10/18 12:28:22;;;;;;;;;;;17.70;99.90;;;;;;5045972;28;19963;-77
2022/10/18 12:30:52;;;;;;;;;;;17.70;99.90;;;;;;5040634;28;19958;-82
2022/10/18 12:33:25;;;;;;;;;;;17.60;99.90;;;;;;5046465;28;19913;-83
2022/10/18 12:35:52;;;;;;;;;;;17.70;99.90;;;;;;5043560;28;19952;-83
2022/10/18 12:38:21;;;;;;;;;;;17.70;99.90;;;;;;5042478;28;19944;-82
2022/10/18 12:40:52;;;;;;;;;;;17.70;99.90;;;;;;5044551;28;19924;-84
2022/10/18 12:43:24;;;;;;;;;;;17.70;99.90;;;;;;5045878;28;19975;-80
2022/10/18 12:45:53;;;;;;;;;;;17.70;99.90;;;;;;5045101;28;19971;-81
2022/10/18 12:48:27;;;;;;;;;;;17.70;99.90;;;;;;5041312;28;19913;-79
2022/10/18 12:51:03;;;;;;;;;;;17.60;99.90;;;;;;5031409;28;20290;-76
2022/10/18 12:53:30;;;;;;;;;;;17.60;99.90;;;;;;5033402;28;19920;-81
2022/10/18 12:56:17;;;;;;;;;;;17.60;99.90;;;;;;5029939;28;19970;-82
2022/10/18 12:58:43;;;;;;;;;;;17.60;99.90;;;;;;5033131;28;20047;-77
2022/10/18 13:01:10;;;;;;;;;;;17.50;99.90;;;;;;5034813;28;19925;-81
2022/10/18 13:03:49;;;;;;;;;;;17.50;99.90;;;;;;5032253;28;19913;-78
2022/10/18 13:06:16;;;;;;;;;;;17.50;99.90;;;;;;5034630;28;19925;-79
2022/10/18 13:08:44;;;;;;;;;;;17.40;99.90;;;;;;5030735;28;20414;-78
2022/10/18 13:11:11;;;;;;;;;;;17.40;99.90;;;;;;5032063;28;19927;-75
2022/10/18 13:13:45;;;;;;;;;;;17.40;99.90;;;;;;5032137;28;19921;-81
2022/10/18 13:16:23;;;;;;;;;;;17.40;99.90;;;;;;5027657;28;19924;-78
2022/10/18 13:19:08;;;;;;;;;;;17.40;99.90;;;;;;5028807;28;20391;-80
2022/10/18 13:21:41;;;;;;;;;;;17.40;99.90;;;;;;5033441;28;19940;-79
2022/10/18 13:24:10;;;;;;;;;;;17.40;99.90;;;;;;5039495;28;19923;-76
2022/10/18 13:26:37;;;;;;;;;;;17.40;99.90;;;;;;5030842;28;19963;-74
2022/10/18 13:29:25;;;;;;;;;;;17.40;99.90;;;;;;5029096;28;20001;-77
2022/10/18 13:32:00;;;;;;;;;;;17.40;99.90;;;;;;5033166;28;19960;-78
2022/10/18 13:34:33;;;;;;;;;;;17.40;99.90;;;;;;5032633;28;19921;-77
2022/10/18 13:37:05;;;;;;;;;;;17.40;99.90;;;;;;5029387;28;20295;-76
2022/10/18 13:39:32;;;;;;;;;;;17.50;99.90;;;;;;5031213;28;20307;-77
2022/10/18 13:41:59;;;;;;;;;;;17.50;99.90;;;;;;5032529;28;19927;-76
2022/10/18 13:44:36;;;;;;;;;;;17.50;99.90;;;;;;5031973;28;19921;-75
2022/10/18 13:47:03;;;;;;;;;;;17.50;99.90;;;;;;5030171;28;20248;-74
2022/10/18 13:49:29;;;;;;;;;;;17.60;99.90;;;;;;5034616;28;19916;-78
2022/10/18 13:52:08;;;;;;;;;;;17.60;99.90;;;;;;5032384;28;19940;-77
2022/10/18 13:54:35;;;;;;;;;;;17.60;99.90;;;;;;5037155;28;19917;-78
2022/10/18 13:57:08;;;;;;;;;;;17.60;99.90;;;;;;5034906;28;20386;-73
2022/10/18 13:59:50;;;;;;;;;;;17.60;99.90;;;;;;5028619;28;19920;-77
2022/10/18 14:02:23;;;;;;;;;;;17.60;99.90;;;;;;5032525;28;19928;-78
2022/10/18 14:04:59;;;;;;;;;;;17.60;99.90;;;;;;5034383;28;20009;-74
2022/10/18 14:07:26;;;;;;;;;;;17.70;99.90;;;;;;5031448;28;20035;-80
2022/10/18 14:09:53;;;;;;;;;;;17.60;99.90;;;;;;5032876;28;20621;-76
2022/10/18 14:12:24;;;;;;;;;;;17.60;99.90;;;;;;5034407;28;20376;-78
2022/10/18 14:15:11;;;;;;;;;;;17.60;99.90;;;;;;5037145;28;20047;-79
2022/10/18 14:17:37;;;;;;;;;;;17.60;99.90;;;;;;5020283;28;20061;-76
2022/10/18 14:20:20;;;;;;;;;;;17.50;99.90;;;;;;5029379;28;19972;-79
2022/10/18 14:23:09;;;;;;;;;;;17.50;99.90;;;;;;5035892;28;20558;-75
2022/10/18 14:25:37;;;;;;;;;;;17.50;99.90;;;;;;5032835;28;19939;-79
2022/10/18 14:28:05;;;;;;;;;;;17.40;99.90;;;;;;5029150;28;19924;-79
2022/10/18 14:30:31;;;;;;;;;;;17.40;99.90;;;;;;5030643;28;19932;-78
2022/10/18 14:32:58;;;;;;;;;;;17.40;99.90;;;;;;5033353;28;19943;-80
2022/10/18 14:35:27;;;;;;;;;;;17.40;99.90;;;;;;5033718;28;21874;-78